sensor_id;sensor_type;location;lat;lon;timestamp;temperature;humidity
78516;SHT31;67815;51.990;5.688;2023-03-01T00:02:14;3.4;50.2
78516;SHT31;67815;51.990;5.688;2023-03-01T00:04:44;3.4;49.8
78516;SHT31;67815;51.990;5.688;2023-03-01T00:07:14;3.4;50.4
78516;SHT31;67815;51.990;5.688;2023-03-01T00:09:44;3.4;50.2
78516;SHT31;67815;51.990;5.688;2023-03-01T00:12:13;3.4;50.7
78516;SHT31;67815;51.990;5.688;2023-03-01T00:14:43;3.4;50.5
78516;SHT31;67815;51.990;5.688;2023-03-01T00:17:13;3.4;50.9
78516;SHT31;67815;51.990;5.688;2023-03-01T00:19:43;3.4;51.1
78516;SHT31;67815;51.990;5.688;2023-03-01T00:22:12;3.4;51.1
78516;SHT31;67815;51.990;5.688;2023-03-01T00:24:42;3.4;51.3
78516;SHT31;67815;51.990;5.688;2023-03-01T00:27:11;3.3;51.0
78516;SHT31;67815;51.990;5.688;2023-03-01T00:29:41;3.3;51.1
78516;SHT31;67815;51.990;5.688;2023-03-01T00:32:10;3.3;51.2
78516;SHT31;67815;51.990;5.688;2023-03-01T00:34:40;3.3;51.1
78516;SHT31;67815;51.990;5.688;2023-03-01T00:37:09;3.3;51.3
78516;SHT31;67815;51.990;5.688;2023-03-01T00:39:39;3.3;51.3
78516;SHT31;67815;51.990;5.688;2023-03-01T00:42:09;3.3;51.1
78516;SHT31;67815;51.990;5.688;2023-03-01T00:44:38;3.3;51.3
78516;SHT31;67815;51.990;5.688;2023-03-01T00:47:08;3.3;51.3
78516;SHT31;67815;51.990;5.688;2023-03-01T00:49:38;3.3;51.1
78516;SHT31;67815;51.990;5.688;2023-03-01T00:52:07;3.3;50.9
78516;SHT31;67815;51.990;5.688;2023-03-01T00:54:39;3.3;50.9
78516;SHT31;67815;51.990;5.688;2023-03-01T00:57:08;3.3;51.1
78516;SHT31;67815;51.990;5.688;2023-03-01T00:59:38;3.3;51.1
78516;SHT31;67815;51.990;5.688;2023-03-01T01:02:07;3.2;51.4
78516;SHT31;67815;51.990;5.688;2023-03-01T01:04:37;3.2;51.2
78516;SHT31;67815;51.990;5.688;2023-03-01T01:07:06;3.2;50.8
78516;SHT31;67815;51.990;5.688;2023-03-01T01:09:36;3.2;51.5
78516;SHT31;67815;51.990;5.688;2023-03-01T01:12:09;3.2;51.7
78516;SHT31;67815;51.990;5.688;2023-03-01T01:14:39;3.2;51.7
78516;SHT31;67815;51.990;5.688;2023-03-01T01:17:09;3.2;51.6
78516;SHT31;67815;51.990;5.688;2023-03-01T01:19:38;3.2;51.5
78516;SHT31;67815;51.990;5.688;2023-03-01T01:22:08;3.2;51.5
78516;SHT31;67815;51.990;5.688;2023-03-01T01:24:38;3.2;50.9
78516;SHT31;67815;51.990;5.688;2023-03-01T01:27:07;3.2;50.8
78516;SHT31;67815;51.990;5.688;2023-03-01T01:29:37;3.2;51.2
78516;SHT31;67815;51.990;5.688;2023-03-01T01:32:07;3.2;51.6
78516;SHT31;67815;51.990;5.688;2023-03-01T01:34:36;3.1;50.7
78516;SHT31;67815;51.990;5.688;2023-03-01T01:37:06;3.1;51.2
78516;SHT31;67815;51.990;5.688;2023-03-01T01:39:36;3.1;51.3
78516;SHT31;67815;51.990;5.688;2023-03-01T01:42:08;3.1;51.1
78516;SHT31;67815;51.990;5.688;2023-03-01T01:44:44;3.2;50.7
78516;SHT31;67815;51.990;5.688;2023-03-01T01:47:19;3.2;50.3
78516;SHT31;67815;51.990;5.688;2023-03-01T01:49:53;3.2;50.6
78516;SHT31;67815;51.990;5.688;2023-03-01T01:52:26;3.2;51.3
78516;SHT31;67815;51.990;5.688;2023-03-01T01:55:02;3.2;50.2
78516;SHT31;67815;51.990;5.688;2023-03-01T01:57:35;3.2;50.1
78516;SHT31;67815;51.990;5.688;2023-03-01T02:00:10;3.2;50.4
78516;SHT31;67815;51.990;5.688;2023-03-01T02:02:44;3.2;50.1
78516;SHT31;67815;51.990;5.688;2023-03-01T02:05:20;3.2;50.2
78516;SHT31;67815;51.990;5.688;2023-03-01T02:07:52;3.2;49.6
78516;SHT31;67815;51.990;5.688;2023-03-01T02:10:23;3.2;50.5
78516;SHT31;67815;51.990;5.688;2023-03-01T02:12:54;3.2;49.4
78516;SHT31;67815;51.990;5.688;2023-03-01T02:15:25;3.2;50.5
78516;SHT31;67815;51.990;5.688;2023-03-01T02:17:56;3.2;50.5
78516;SHT31;67815;51.990;5.688;2023-03-01T02:20:35;3.2;50.2
78516;SHT31;67815;51.990;5.688;2023-03-01T02:23:08;3.2;50.4
78516;SHT31;67815;51.990;5.688;2023-03-01T02:25:47;3.1;50.6
78516;SHT31;67815;51.990;5.688;2023-03-01T02:28:43;3.1;50.9
78516;SHT31;67815;51.990;5.688;2023-03-01T02:31:17;3.1;51.3
78516;SHT31;67815;51.990;5.688;2023-03-01T02:34:05;3.1;49.9
78516;SHT31;67815;51.990;5.688;2023-03-01T02:36:38;3.1;49.7
78516;SHT31;67815;51.990;5.688;2023-03-01T02:39:13;3.1;49.8
78516;SHT31;67815;51.990;5.688;2023-03-01T02:41:49;3.1;50.0
78516;SHT31;67815;51.990;5.688;2023-03-01T02:44:20;3.1;49.7
78516;SHT31;67815;51.990;5.688;2023-03-01T02:46:52;3.1;50.0
78516;SHT31;67815;51.990;5.688;2023-03-01T02:49:25;3.1;49.7
78516;SHT31;67815;51.990;5.688;2023-03-01T02:52:15;3.1;50.8
78516;SHT31;67815;51.990;5.688;2023-03-01T02:54:51;3.1;50.1
78516;SHT31;67815;51.990;5.688;2023-03-01T02:57:25;3.1;50.2
78516;SHT31;67815;51.990;5.688;2023-03-01T03:00:01;3.1;50.1
78516;SHT31;67815;51.990;5.688;2023-03-01T03:02:35;3.0;50.1
78516;SHT31;67815;51.990;5.688;2023-03-01T03:05:09;3.0;50.1
78516;SHT31;67815;51.990;5.688;2023-03-01T03:07:41;3.0;50.5
78516;SHT31;67815;51.990;5.688;2023-03-01T03:10:16;3.0;50.1
78516;SHT31;67815;51.990;5.688;2023-03-01T03:12:51;3.0;50.4
78516;SHT31;67815;51.990;5.688;2023-03-01T03:15:22;3.0;50.3
78516;SHT31;67815;51.990;5.688;2023-03-01T03:17:54;3.0;50.6
78516;SHT31;67815;51.990;5.688;2023-03-01T03:20:27;3.0;50.5
78516;SHT31;67815;51.990;5.688;2023-03-01T03:22:57;3.0;50.6
78516;SHT31;67815;51.990;5.688;2023-03-01T03:25:28;3.0;50.6
78516;SHT31;67815;51.990;5.688;2023-03-01T03:27:58;3.0;50.8
78516;SHT31;67815;51.990;5.688;2023-03-01T03:30:30;3.0;51.1
78516;SHT31;67815;51.990;5.688;2023-03-01T03:33:02;3.0;50.9
78516;SHT31;67815;51.990;5.688;2023-03-01T03:35:34;2.9;51.1
78516;SHT31;67815;51.990;5.688;2023-03-01T03:38:09;2.9;51.3
78516;SHT31;67815;51.990;5.688;2023-03-01T03:40:45;2.9;51.8
78516;SHT31;67815;51.990;5.688;2023-03-01T03:43:18;2.9;52.1
78516;SHT31;67815;51.990;5.688;2023-03-01T03:45:50;2.9;52.1
78516;SHT31;67815;51.990;5.688;2023-03-01T03:48:21;2.9;51.7
78516;SHT31;67815;51.990;5.688;2023-03-01T03:50:53;2.9;52.3
78516;SHT31;67815;51.990;5.688;2023-03-01T03:53:25;2.9;51.9
78516;SHT31;67815;51.990;5.688;2023-03-01T03:55:55;2.9;52.2
78516;SHT31;67815;51.990;5.688;2023-03-01T03:58:25;2.9;52.6
78516;SHT31;67815;51.990;5.688;2023-03-01T04:00:57;2.9;52.6
78516;SHT31;67815;51.990;5.688;2023-03-01T04:03:30;2.9;52.5
78516;SHT31;67815;51.990;5.688;2023-03-01T04:06:03;2.8;52.3
78516;SHT31;67815;51.990;5.688;2023-03-01T04:08:33;2.8;52.6
78516;SHT31;67815;51.990;5.688;2023-03-01T04:11:04;2.8;52.5
78516;SHT31;67815;51.990;5.688;2023-03-01T04:13:57;2.8;52.5
78516;SHT31;67815;51.990;5.688;2023-03-01T04:16:28;2.8;52.3
78516;SHT31;67815;51.990;5.688;2023-03-01T04:18:57;2.7;52.5
78516;SHT31;67815;51.990;5.688;2023-03-01T04:21:28;2.7;52.8
78516;SHT31;67815;51.990;5.688;2023-03-01T04:23:58;2.7;52.6
78516;SHT31;67815;51.990;5.688;2023-03-01T04:29:03;2.7;52.9
78516;SHT31;67815;51.990;5.688;2023-03-01T04:31:32;2.7;52.9
78516;SHT31;67815;51.990;5.688;2023-03-01T04:34:02;2.7;52.2
78516;SHT31;67815;51.990;5.688;2023-03-01T04:36:32;2.7;52.6
78516;SHT31;67815;51.990;5.688;2023-03-01T04:39:02;2.6;52.5
78516;SHT31;67815;51.990;5.688;2023-03-01T04:41:39;2.6;53.2
78516;SHT31;67815;51.990;5.688;2023-03-01T04:44:10;2.6;52.9
78516;SHT31;67815;51.990;5.688;2023-03-01T04:46:42;2.6;53.1
78516;SHT31;67815;51.990;5.688;2023-03-01T04:49:14;2.6;53.0
78516;SHT31;67815;51.990;5.688;2023-03-01T04:51:43;2.6;53.1
78516;SHT31;67815;51.990;5.688;2023-03-01T04:54:13;2.6;53.0
78516;SHT31;67815;51.990;5.688;2023-03-01T04:56:43;2.6;53.4
78516;SHT31;67815;51.990;5.688;2023-03-01T04:59:13;2.6;53.5
78516;SHT31;67815;51.990;5.688;2023-03-01T05:01:43;2.6;53.8
78516;SHT31;67815;51.990;5.688;2023-03-01T05:04:14;2.5;53.8
78516;SHT31;67815;51.990;5.688;2023-03-01T05:06:44;2.5;53.8
78516;SHT31;67815;51.990;5.688;2023-03-01T05:09:13;2.5;53.7
78516;SHT31;67815;51.990;5.688;2023-03-01T05:11:43;2.5;54.0
78516;SHT31;67815;51.990;5.688;2023-03-01T05:14:13;2.5;54.0
78516;SHT31;67815;51.990;5.688;2023-03-01T05:16:42;2.5;54.0
78516;SHT31;67815;51.990;5.688;2023-03-01T05:19:12;2.4;54.1
78516;SHT31;67815;51.990;5.688;2023-03-01T05:21:43;2.4;54.5
78516;SHT31;67815;51.990;5.688;2023-03-01T05:24:35;2.4;54.3
78516;SHT31;67815;51.990;5.688;2023-03-01T05:27:06;2.4;54.6
78516;SHT31;67815;51.990;5.688;2023-03-01T05:29:35;2.3;54.5
78516;SHT31;67815;51.990;5.688;2023-03-01T05:32:07;2.3;54.8
78516;SHT31;67815;51.990;5.688;2023-03-01T05:34:37;2.3;54.9
78516;SHT31;67815;51.990;5.688;2023-03-01T05:37:07;2.3;54.5
78516;SHT31;67815;51.990;5.688;2023-03-01T05:39:37;2.3;54.4
78516;SHT31;67815;51.990;5.688;2023-03-01T05:42:10;2.3;54.5
78516;SHT31;67815;51.990;5.688;2023-03-01T05:44:40;2.3;54.6
78516;SHT31;67815;51.990;5.688;2023-03-01T05:47:09;2.3;54.6
78516;SHT31;67815;51.990;5.688;2023-03-01T05:49:41;2.2;54.8
78516;SHT31;67815;51.990;5.688;2023-03-01T05:52:12;2.2;55.0
78516;SHT31;67815;51.990;5.688;2023-03-01T05:54:41;2.2;54.9
78516;SHT31;67815;51.990;5.688;2023-03-01T05:57:11;2.2;54.9
78516;SHT31;67815;51.990;5.688;2023-03-01T05:59:40;2.2;54.8
78516;SHT31;67815;51.990;5.688;2023-03-01T06:02:10;2.1;55.0
78516;SHT31;67815;51.990;5.688;2023-03-01T06:04:40;2.1;54.9
78516;SHT31;67815;51.990;5.688;2023-03-01T06:07:09;2.1;55.2
78516;SHT31;67815;51.990;5.688;2023-03-01T06:09:39;2.1;55.0
78516;SHT31;67815;51.990;5.688;2023-03-01T06:12:08;2.1;55.0
78516;SHT31;67815;51.990;5.688;2023-03-01T06:14:40;2.1;55.2
78516;SHT31;67815;51.990;5.688;2023-03-01T06:17:09;2.1;55.1
78516;SHT31;67815;51.990;5.688;2023-03-01T06:19:39;2.1;55.4
78516;SHT31;67815;51.990;5.688;2023-03-01T06:22:08;2.0;55.8
78516;SHT31;67815;51.990;5.688;2023-03-01T06:24:38;2.0;55.9
78516;SHT31;67815;51.990;5.688;2023-03-01T06:27:07;2.0;56.0
78516;SHT31;67815;51.990;5.688;2023-03-01T06:29:37;2.0;56.2
78516;SHT31;67815;51.990;5.688;2023-03-01T06:32:09;2.0;56.6
78516;SHT31;67815;51.990;5.688;2023-03-01T06:34:40;2.0;56.2
78516;SHT31;67815;51.990;5.688;2023-03-01T06:37:11;2.0;56.5
78516;SHT31;67815;51.990;5.688;2023-03-01T06:39:40;2.0;56.1
78516;SHT31;67815;51.990;5.688;2023-03-01T06:42:10;2.0;56.2
78516;SHT31;67815;51.990;5.688;2023-03-01T06:44:40;2.0;56.3
78516;SHT31;67815;51.990;5.688;2023-03-01T06:47:11;2.0;56.2
78516;SHT31;67815;51.990;5.688;2023-03-01T06:49:41;2.0;56.0
78516;SHT31;67815;51.990;5.688;2023-03-01T06:52:10;2.1;55.8
78516;SHT31;67815;51.990;5.688;2023-03-01T06:54:40;2.1;56.3
78516;SHT31;67815;51.990;5.688;2023-03-01T06:57:09;2.1;55.9
78516;SHT31;67815;51.990;5.688;2023-03-01T06:59:39;2.1;56.2
78516;SHT31;67815;51.990;5.688;2023-03-01T07:02:11;2.1;56.3
78516;SHT31;67815;51.990;5.688;2023-03-01T07:04:42;2.1;56.1
78516;SHT31;67815;51.990;5.688;2023-03-01T07:07:12;2.1;55.9
78516;SHT31;67815;51.990;5.688;2023-03-01T07:09:41;2.1;55.5
78516;SHT31;67815;51.990;5.688;2023-03-01T07:12:11;2.1;55.5
78516;SHT31;67815;51.990;5.688;2023-03-01T07:14:43;2.1;55.3
78516;SHT31;67815;51.990;5.688;2023-03-01T07:17:13;2.2;55.0
78516;SHT31;67815;51.990;5.688;2023-03-01T07:19:43;2.2;55.4
78516;SHT31;67815;51.990;5.688;2023-03-01T07:22:13;2.2;55.4
78516;SHT31;67815;51.990;5.688;2023-03-01T07:24:43;2.2;55.0
78516;SHT31;67815;51.990;5.688;2023-03-01T07:27:13;2.2;55.2
78516;SHT31;67815;51.990;5.688;2023-03-01T07:29:42;2.3;55.5
78516;SHT31;67815;51.990;5.688;2023-03-01T07:32:12;2.3;55.4
78516;SHT31;67815;51.990;5.688;2023-03-01T07:34:41;2.3;54.9
78516;SHT31;67815;51.990;5.688;2023-03-01T07:37:11;2.3;55.7
78516;SHT31;67815;51.990;5.688;2023-03-01T07:39:40;2.3;55.9
78516;SHT31;67815;51.990;5.688;2023-03-01T07:42:10;2.3;55.8
78516;SHT31;67815;51.990;5.688;2023-03-01T07:44:40;2.4;54.8
78516;SHT31;67815;51.990;5.688;2023-03-01T07:47:09;2.4;55.2
78516;SHT31;67815;51.990;5.688;2023-03-01T07:49:39;2.4;55.0
78516;SHT31;67815;51.990;5.688;2023-03-01T07:52:09;2.4;55.1
78516;SHT31;67815;51.990;5.688;2023-03-01T07:54:42;2.5;54.7
78516;SHT31;67815;51.990;5.688;2023-03-01T07:57:12;2.5;54.8
78516;SHT31;67815;51.990;5.688;2023-03-01T07:59:42;2.5;54.6
78516;SHT31;67815;51.990;5.688;2023-03-01T08:02:12;2.5;54.4
78516;SHT31;67815;51.990;5.688;2023-03-01T08:04:42;2.6;54.2
78516;SHT31;67815;51.990;5.688;2023-03-01T08:07:12;2.6;54.5
78516;SHT31;67815;51.990;5.688;2023-03-01T08:09:43;2.6;53.9
78516;SHT31;67815;51.990;5.688;2023-03-01T08:12:13;2.7;53.7
78516;SHT31;67815;51.990;5.688;2023-03-01T08:14:44;2.7;53.7
78516;SHT31;67815;51.990;5.688;2023-03-01T08:17:15;2.7;54.4
78516;SHT31;67815;51.990;5.688;2023-03-01T08:19:45;2.8;53.7
78516;SHT31;67815;51.990;5.688;2023-03-01T08:22:15;2.8;53.9
78516;SHT31;67815;51.990;5.688;2023-03-01T08:24:44;2.8;53.3
78516;SHT31;67815;51.990;5.688;2023-03-01T08:27:14;2.9;53.5
78516;SHT31;67815;51.990;5.688;2023-03-01T08:29:44;2.9;54.2
78516;SHT31;67815;51.990;5.688;2023-03-01T08:32:14;3.0;53.4
78516;SHT31;67815;51.990;5.688;2023-03-01T08:34:46;3.0;53.9
78516;SHT31;67815;51.990;5.688;2023-03-01T08:37:15;3.0;53.4
78516;SHT31;67815;51.990;5.688;2023-03-01T08:39:45;3.1;53.4
78516;SHT31;67815;51.990;5.688;2023-03-01T08:42:16;3.1;53.3
78516;SHT31;67815;51.990;5.688;2023-03-01T08:44:45;3.2;53.2
78516;SHT31;67815;51.990;5.688;2023-03-01T08:47:19;3.2;52.7
78516;SHT31;67815;51.990;5.688;2023-03-01T08:49:50;3.3;52.9
78516;SHT31;67815;51.990;5.688;2023-03-01T08:52:21;3.3;52.9
78516;SHT31;67815;51.990;5.688;2023-03-01T08:54:52;3.3;52.5
78516;SHT31;67815;51.990;5.688;2023-03-01T08:57:22;3.4;53.0
78516;SHT31;67815;51.990;5.688;2023-03-01T08:59:52;3.4;53.2
78516;SHT31;67815;51.990;5.688;2023-03-01T09:02:23;3.5;52.9
78516;SHT31;67815;51.990;5.688;2023-03-01T09:04:52;3.5;53.1
78516;SHT31;67815;51.990;5.688;2023-03-01T09:07:22;3.6;52.5
78516;SHT31;67815;51.990;5.688;2023-03-01T09:09:55;3.7;52.9
78516;SHT31;67815;51.990;5.688;2023-03-01T09:12:25;3.7;52.3
78516;SHT31;67815;51.990;5.688;2023-03-01T09:14:54;3.8;52.2
78516;SHT31;67815;51.990;5.688;2023-03-01T09:17:24;3.9;52.1
78516;SHT31;67815;51.990;5.688;2023-03-01T09:19:53;4.1;51.6
78516;SHT31;67815;51.990;5.688;2023-03-01T09:22:23;4.3;51.4
78516;SHT31;67815;51.990;5.688;2023-03-01T09:24:52;4.5;50.5
78516;SHT31;67815;51.990;5.688;2023-03-01T09:27:23;4.6;50.9
78516;SHT31;67815;51.990;5.688;2023-03-01T09:29:53;4.7;50.0
78516;SHT31;67815;51.990;5.688;2023-03-01T09:32:24;4.8;49.3
78516;SHT31;67815;51.990;5.688;2023-03-01T09:34:53;4.9;48.6
78516;SHT31;67815;51.990;5.688;2023-03-01T09:37:36;5.0;48.9
78516;SHT31;67815;51.990;5.688;2023-03-01T09:40:14;5.0;47.8
78516;SHT31;67815;51.990;5.688;2023-03-01T09:42:52;5.0;47.8
78516;SHT31;67815;51.990;5.688;2023-03-01T09:45:29;5.0;47.1
78516;SHT31;67815;51.990;5.688;2023-03-01T09:48:04;5.0;47.3
78516;SHT31;67815;51.990;5.688;2023-03-01T09:50:39;5.0;47.8
78516;SHT31;67815;51.990;5.688;2023-03-01T09:53:14;5.0;47.3
78516;SHT31;67815;51.990;5.688;2023-03-01T09:55:49;5.0;47.4
78516;SHT31;67815;51.990;5.688;2023-03-01T09:58:48;5.0;48.0
78516;SHT31;67815;51.990;5.688;2023-03-01T10:01:28;5.0;47.7
78516;SHT31;67815;51.990;5.688;2023-03-01T10:04:17;5.1;46.4
78516;SHT31;67815;51.990;5.688;2023-03-01T10:06:57;5.1;45.2
78516;SHT31;67815;51.990;5.688;2023-03-01T10:09:33;5.1;44.7
78516;SHT31;67815;51.990;5.688;2023-03-01T10:12:10;5.2;44.6
78516;SHT31;67815;51.990;5.688;2023-03-01T10:14:48;5.2;44.8
78516;SHT31;67815;51.990;5.688;2023-03-01T10:17:28;5.2;44.0
78516;SHT31;67815;51.990;5.688;2023-03-01T10:20:18;5.3;44.1
78516;SHT31;67815;51.990;5.688;2023-03-01T10:22:49;5.3;43.4
78516;SHT31;67815;51.990;5.688;2023-03-01T10:25:40;5.3;43.3
78516;SHT31;67815;51.990;5.688;2023-03-01T10:28:16;5.3;44.2
78516;SHT31;67815;51.990;5.688;2023-03-01T10:30:46;5.4;43.5
78516;SHT31;67815;51.990;5.688;2023-03-01T10:33:21;5.4;43.0
78516;SHT31;67815;51.990;5.688;2023-03-01T10:35:52;5.4;44.4
78516;SHT31;67815;51.990;5.688;2023-03-01T10:38:21;5.5;43.8
78516;SHT31;67815;51.990;5.688;2023-03-01T10:40:54;5.5;44.3
78516;SHT31;67815;51.990;5.688;2023-03-01T10:43:28;5.6;43.0
78516;SHT31;67815;51.990;5.688;2023-03-01T10:45:59;5.6;43.9
78516;SHT31;67815;51.990;5.688;2023-03-01T10:48:29;5.6;43.3
78516;SHT31;67815;51.990;5.688;2023-03-01T10:51:14;5.7;43.5
78516;SHT31;67815;51.990;5.688;2023-03-01T10:53:49;5.7;41.8
78516;SHT31;67815;51.990;5.688;2023-03-01T10:56:20;5.8;41.6
78516;SHT31;67815;51.990;5.688;2023-03-01T10:59:00;5.8;41.8
78516;SHT31;67815;51.990;5.688;2023-03-01T11:01:32;5.9;42.2
78516;SHT31;67815;51.990;5.688;2023-03-01T11:04:11;5.9;42.7
78516;SHT31;67815;51.990;5.688;2023-03-01T11:06:42;6.0;43.4
78516;SHT31;67815;51.990;5.688;2023-03-01T11:09:19;6.0;41.4
78516;SHT31;67815;51.990;5.688;2023-03-01T11:11:52;6.0;42.0
78516;SHT31;67815;51.990;5.688;2023-03-01T11:14:24;6.1;42.0
78516;SHT31;67815;51.990;5.688;2023-03-01T11:17:03;6.1;41.3
78516;SHT31;67815;51.990;5.688;2023-03-01T11:19:33;6.1;42.0
78516;SHT31;67815;51.990;5.688;2023-03-01T11:22:10;6.2;41.9
78516;SHT31;67815;51.990;5.688;2023-03-01T11:24:46;6.2;40.7
78516;SHT31;67815;51.990;5.688;2023-03-01T11:27:22;6.2;41.3
78516;SHT31;67815;51.990;5.688;2023-03-01T11:29:58;6.3;40.7
78516;SHT31;67815;51.990;5.688;2023-03-01T11:32:35;6.3;40.7
78516;SHT31;67815;51.990;5.688;2023-03-01T11:35:13;6.4;40.0
78516;SHT31;67815;51.990;5.688;2023-03-01T11:37:56;6.4;38.5
78516;SHT31;67815;51.990;5.688;2023-03-01T11:40:32;6.4;38.6
78516;SHT31;67815;51.990;5.688;2023-03-01T11:43:15;6.5;39.5
78516;SHT31;67815;51.990;5.688;2023-03-01T11:46:02;6.5;40.1
78516;SHT31;67815;51.990;5.688;2023-03-01T11:48:47;6.6;40.6
78516;SHT31;67815;51.990;5.688;2023-03-01T11:51:24;6.6;40.7
78516;SHT31;67815;51.990;5.688;2023-03-01T11:54:17;6.7;40.8
78516;SHT31;67815;51.990;5.688;2023-03-01T11:56:52;6.7;40.8
78516;SHT31;67815;51.990;5.688;2023-03-01T12:00:44;6.8;40.2
78516;SHT31;67815;51.990;5.688;2023-03-01T12:04:54;6.8;41.2
78516;SHT31;67815;51.990;5.688;2023-03-01T12:07:34;6.9;40.3
78516;SHT31;67815;51.990;5.688;2023-03-01T12:10:23;7.0;41.1
78516;SHT31;67815;51.990;5.688;2023-03-01T12:13:16;7.0;40.5
78516;SHT31;67815;51.990;5.688;2023-03-01T12:16:12;7.1;40.4
78516;SHT31;67815;51.990;5.688;2023-03-01T12:19:07;7.1;39.2
78516;SHT31;67815;51.990;5.688;2023-03-01T12:21:52;7.2;40.6
78516;SHT31;67815;51.990;5.688;2023-03-01T12:26:06;7.2;40.2
78516;SHT31;67815;51.990;5.688;2023-03-01T12:28:59;7.3;40.0
78516;SHT31;67815;51.990;5.688;2023-03-01T12:31:46;7.3;38.6
78516;SHT31;67815;51.990;5.688;2023-03-01T12:34:33;7.3;38.8
78516;SHT31;67815;51.990;5.688;2023-03-01T12:37:15;7.3;39.0
78516;SHT31;67815;51.990;5.688;2023-03-01T12:40:00;7.4;39.5
78516;SHT31;67815;51.990;5.688;2023-03-01T12:42:38;7.4;38.4
78516;SHT31;67815;51.990;5.688;2023-03-01T12:45:57;7.4;38.9
78516;SHT31;67815;51.990;5.688;2023-03-01T12:48:43;7.5;38.3
78516;SHT31;67815;51.990;5.688;2023-03-01T12:51:20;7.5;37.7
78516;SHT31;67815;51.990;5.688;2023-03-01T12:53:54;7.5;38.3
78516;SHT31;67815;51.990;5.688;2023-03-01T12:56:28;7.5;38.5
78516;SHT31;67815;51.990;5.688;2023-03-01T12:59:04;7.6;38.7
78516;SHT31;67815;51.990;5.688;2023-03-01T13:01:44;7.6;38.0
78516;SHT31;67815;51.990;5.688;2023-03-01T13:04:36;7.6;37.7
78516;SHT31;67815;51.990;5.688;2023-03-01T13:07:21;7.7;38.5
78516;SHT31;67815;51.990;5.688;2023-03-01T13:10:15;7.7;38.6
78516;SHT31;67815;51.990;5.688;2023-03-01T13:12:51;7.7;37.8
78516;SHT31;67815;51.990;5.688;2023-03-01T13:15:35;7.7;37.7
78516;SHT31;67815;51.990;5.688;2023-03-01T13:18:29;7.8;37.7
78516;SHT31;67815;51.990;5.688;2023-03-01T13:21:01;7.8;38.3
78516;SHT31;67815;51.990;5.688;2023-03-01T13:23:35;7.8;38.8
78516;SHT31;67815;51.990;5.688;2023-03-01T13:26:08;7.8;38.0
78516;SHT31;67815;51.990;5.688;2023-03-01T13:28:54;7.9;37.9
78516;SHT31;67815;51.990;5.688;2023-03-01T13:33:46;7.9;38.0
78516;SHT31;67815;51.990;5.688;2023-03-01T13:36:47;7.9;37.4
78516;SHT31;67815;51.990;5.688;2023-03-01T13:39:38;8.0;36.8
78516;SHT31;67815;51.990;5.688;2023-03-01T13:42:36;8.0;36.8
78516;SHT31;67815;51.990;5.688;2023-03-01T13:45:16;8.0;37.2
78516;SHT31;67815;51.990;5.688;2023-03-01T13:47:50;8.1;37.2
78516;SHT31;67815;51.990;5.688;2023-03-01T13:50:25;8.1;37.7
78516;SHT31;67815;51.990;5.688;2023-03-01T13:52:58;8.1;37.5
78516;SHT31;67815;51.990;5.688;2023-03-01T13:55:34;8.1;37.8
78516;SHT31;67815;51.990;5.688;2023-03-01T13:58:17;8.2;38.8
78516;SHT31;67815;51.990;5.688;2023-03-01T14:00:59;8.2;38.9
78516;SHT31;67815;51.990;5.688;2023-03-01T14:03:31;8.3;38.1
78516;SHT31;67815;51.990;5.688;2023-03-01T14:06:05;8.3;36.3
78516;SHT31;67815;51.990;5.688;2023-03-01T14:08:38;8.3;36.7
78516;SHT31;67815;51.990;5.688;2023-03-01T14:16:24;8.4;36.7
78516;SHT31;67815;51.990;5.688;2023-03-01T14:19:09;8.4;36.5
78516;SHT31;67815;51.990;5.688;2023-03-01T14:21:44;8.4;37.1
78516;SHT31;67815;51.990;5.688;2023-03-01T14:24:21;8.4;36.2
78516;SHT31;67815;51.990;5.688;2023-03-01T14:26:54;8.4;35.7
78516;SHT31;67815;51.990;5.688;2023-03-01T14:29:36;8.5;36.1
78516;SHT31;67815;51.990;5.688;2023-03-01T14:32:20;8.5;36.3
78516;SHT31;67815;51.990;5.688;2023-03-01T14:34:51;8.5;36.7
78516;SHT31;67815;51.990;5.688;2023-03-01T14:37:25;8.5;36.6
78516;SHT31;67815;51.990;5.688;2023-03-01T14:39:57;8.5;36.6
78516;SHT31;67815;51.990;5.688;2023-03-01T14:42:33;8.5;36.4
78516;SHT31;67815;51.990;5.688;2023-03-01T14:45:05;8.5;35.6
78516;SHT31;67815;51.990;5.688;2023-03-01T14:47:37;8.6;36.3
78516;SHT31;67815;51.990;5.688;2023-03-01T14:50:19;8.6;37.4
78516;SHT31;67815;51.990;5.688;2023-03-01T14:52:51;8.6;36.0
78516;SHT31;67815;51.990;5.688;2023-03-01T14:55:28;8.6;36.0
78516;SHT31;67815;51.990;5.688;2023-03-01T14:57:58;8.6;36.7
78516;SHT31;67815;51.990;5.688;2023-03-01T15:00:31;8.7;35.1
78516;SHT31;67815;51.990;5.688;2023-03-01T15:03:11;8.7;34.8
78516;SHT31;67815;51.990;5.688;2023-03-01T15:05:44;8.7;34.6
78516;SHT31;67815;51.990;5.688;2023-03-01T15:08:19;8.7;34.7
78516;SHT31;67815;51.990;5.688;2023-03-01T15:11:33;8.7;34.8
78516;SHT31;67815;51.990;5.688;2023-03-01T15:14:26;8.7;35.0
78516;SHT31;67815;51.990;5.688;2023-03-01T15:16:56;8.8;35.5
78516;SHT31;67815;51.990;5.688;2023-03-01T15:19:28;8.8;34.2
78516;SHT31;67815;51.990;5.688;2023-03-01T15:21:58;8.8;34.6
78516;SHT31;67815;51.990;5.688;2023-03-01T15:24:33;8.8;36.5
78516;SHT31;67815;51.990;5.688;2023-03-01T15:27:04;8.8;33.7
78516;SHT31;67815;51.990;5.688;2023-03-01T15:29:35;8.8;33.8
78516;SHT31;67815;51.990;5.688;2023-03-01T15:32:26;8.8;33.9
78516;SHT31;67815;51.990;5.688;2023-03-01T15:34:58;8.8;34.8
78516;SHT31;67815;51.990;5.688;2023-03-01T15:37:40;8.8;33.7
78516;SHT31;67815;51.990;5.688;2023-03-01T15:40:23;8.8;33.8
78516;SHT31;67815;51.990;5.688;2023-03-01T15:43:00;8.8;34.6
78516;SHT31;67815;51.990;5.688;2023-03-01T15:45:32;8.8;34.3
78516;SHT31;67815;51.990;5.688;2023-03-01T15:48:18;8.7;34.6
78516;SHT31;67815;51.990;5.688;2023-03-01T15:50:54;8.7;33.6
78516;SHT31;67815;51.990;5.688;2023-03-01T15:53:27;8.8;34.5
78516;SHT31;67815;51.990;5.688;2023-03-01T15:55:59;8.8;33.6
78516;SHT31;67815;51.990;5.688;2023-03-01T15:58:29;8.8;35.3
78516;SHT31;67815;51.990;5.688;2023-03-01T16:00:59;8.8;35.1
78516;SHT31;67815;51.990;5.688;2023-03-01T16:03:29;8.8;34.0
78516;SHT31;67815;51.990;5.688;2023-03-01T16:05:59;8.8;33.6
78516;SHT31;67815;51.990;5.688;2023-03-01T16:08:28;8.7;34.0
78516;SHT31;67815;51.990;5.688;2023-03-01T16:10:58;8.7;34.3
78516;SHT31;67815;51.990;5.688;2023-03-01T16:13:30;8.7;33.7
78516;SHT31;67815;51.990;5.688;2023-03-01T16:16:00;8.7;33.8
78516;SHT31;67815;51.990;5.688;2023-03-01T16:18:31;8.7;33.3
78516;SHT31;67815;51.990;5.688;2023-03-01T16:21:02;8.7;33.2
78516;SHT31;67815;51.990;5.688;2023-03-01T16:23:32;8.7;33.7
78516;SHT31;67815;51.990;5.688;2023-03-01T16:26:03;8.7;33.5
78516;SHT31;67815;51.990;5.688;2023-03-01T16:28:33;8.7;33.7
78516;SHT31;67815;51.990;5.688;2023-03-01T16:31:03;8.7;34.7
78516;SHT31;67815;51.990;5.688;2023-03-01T16:33:33;8.7;34.1
78516;SHT31;67815;51.990;5.688;2023-03-01T16:36:07;8.7;35.1
78516;SHT31;67815;51.990;5.688;2023-03-01T16:38:37;8.7;34.9
78516;SHT31;67815;51.990;5.688;2023-03-01T16:41:12;8.7;35.1
78516;SHT31;67815;51.990;5.688;2023-03-01T16:43:43;8.7;35.2
78516;SHT31;67815;51.990;5.688;2023-03-01T16:46:16;8.6;35.9
78516;SHT31;67815;51.990;5.688;2023-03-01T16:48:46;8.6;34.7
78516;SHT31;67815;51.990;5.688;2023-03-01T16:51:18;8.6;34.9
78516;SHT31;67815;51.990;5.688;2023-03-01T16:53:49;8.6;35.9
78516;SHT31;67815;51.990;5.688;2023-03-01T16:56:19;8.6;35.5
78516;SHT31;67815;51.990;5.688;2023-03-01T16:58:49;8.6;35.6
78516;SHT31;67815;51.990;5.688;2023-03-01T17:01:20;8.5;35.8
78516;SHT31;67815;51.990;5.688;2023-03-01T17:03:53;8.5;36.8
78516;SHT31;67815;51.990;5.688;2023-03-01T17:06:22;8.5;37.1
78516;SHT31;67815;51.990;5.688;2023-03-01T17:08:54;8.5;37.3
78516;SHT31;67815;51.990;5.688;2023-03-01T17:11:23;8.4;37.8
78516;SHT31;67815;51.990;5.688;2023-03-01T17:13:53;8.4;37.6
78516;SHT31;67815;51.990;5.688;2023-03-01T17:16:22;8.4;38.4